createdAt,value
2019-04-30T00:01:37.925Z,19.07
2019-04-30T00:04:21.848Z,19.17
2019-04-30T00:06:52.238Z,20.20
2019-04-30T00:09:25.642Z,21.27
2019-04-30T00:12:00.934Z,21.23
2019-04-30T00:14:37.250Z,21.53
2019-04-30T00:16:59.807Z,21.70
2019-04-30T00:19:30.114Z,20.93
2019-04-30T00:22:00.678Z,20.33
2019-04-30T00:24:31.052Z,20.53
2019-04-30T00:27:01.366Z,21.33
2019-04-30T00:29:31.708Z,21.57
2019-04-30T00:32:04.567Z,21.00
2019-04-30T00:34:35.958Z,22.80
2019-04-30T00:37:12.818Z,22.23
2019-04-30T00:39:38.415Z,21.33
2019-04-30T00:42:08.627Z,21.23
2019-04-30T00:44:38.886Z,21.53
2019-04-30T00:47:09.112Z,21.27
2019-04-30T00:49:39.428Z,22.90
2019-04-30T00:52:09.708Z,22.17
2019-04-30T00:54:40.005Z,23.27
2019-04-30T00:57:10.321Z,22.73
2019-04-30T00:59:46.538Z,22.63
2019-04-30T01:02:32.294Z,23.40
2019-04-30T01:05:06.010Z,23.03
2019-04-30T01:07:40.056Z,24.17
2019-04-30T01:10:09.833Z,23.83
2019-04-30T01:12:44.938Z,23.80
2019-04-30T01:15:14.407Z,23.73
2019-04-30T01:17:45.436Z,23.87
2019-04-30T01:20:16.684Z,26.47
2019-04-30T01:22:48.635Z,25.20
2019-04-30T01:25:20.699Z,26.70
2019-04-30T01:27:52.479Z,26.37
2019-04-30T01:30:23.011Z,27.33
2019-04-30T01:32:56.540Z,27.83
2019-04-30T01:35:29.051Z,25.63
2019-04-30T01:37:59.434Z,26.97
2019-04-30T01:40:29.366Z,27.93
2019-04-30T01:42:59.556Z,27.40
2019-04-30T01:45:31.649Z,28.80
2019-04-30T01:48:08.577Z,27.87
2019-04-30T01:50:38.755Z,28.17
2019-04-30T01:53:11.511Z,28.50
2019-04-30T01:55:54.139Z,28.97
2019-04-30T01:58:41.138Z,27.80
2019-04-30T02:01:16.364Z,28.67
2019-04-30T02:03:48.594Z,28.60
2019-04-30T02:06:19.708Z,28.03
2019-04-30T02:08:50.150Z,29.50
2019-04-30T02:11:20.468Z,27.70
2019-04-30T02:13:50.683Z,27.33
2019-04-30T02:16:21.239Z,27.47
2019-04-30T02:18:51.500Z,28.03
2019-04-30T02:21:21.769Z,26.63
2019-04-30T02:23:52.091Z,26.30
2019-04-30T02:26:22.420Z,26.67
2019-04-30T02:28:52.696Z,26.80
2019-04-30T02:31:23.181Z,26.77
2019-04-30T02:34:00.265Z,25.57
2019-04-30T02:36:44.587Z,26.60
2019-04-30T02:39:14.796Z,27.57
2019-04-30T02:41:46.328Z,26.10
2019-04-30T02:44:19.379Z,26.60
2019-04-30T02:46:51.236Z,27.23
2019-04-30T02:49:22.817Z,26.27
2019-04-30T02:51:54.915Z,27.30
2019-04-30T02:54:30.061Z,27.27
2019-04-30T02:57:13.161Z,27.50
2019-04-30T03:00:01.187Z,26.30
2019-04-30T03:02:32.381Z,24.20
2019-04-30T03:05:02.747Z,25.07
2019-04-30T03:07:32.949Z,23.80
2019-04-30T03:10:03.319Z,22.03
2019-04-30T03:12:33.986Z,23.57
2019-04-30T03:15:05.018Z,22.90
2019-04-30T03:17:52.573Z,21.73
2019-04-30T03:21:00.009Z,21.47
2019-04-30T03:23:30.319Z,21.20
2019-04-30T03:26:00.596Z,20.80
2019-04-30T03:28:30.802Z,20.70
2019-04-30T03:31:04.542Z,20.90
2019-04-30T03:33:33.221Z,22.00
2019-04-30T03:36:03.495Z,21.87
2019-04-30T03:38:33.663Z,22.23
2019-04-30T03:41:04.029Z,23.43
2019-04-30T03:43:34.242Z,23.70
2019-04-30T03:46:04.574Z,23.70
2019-04-30T03:48:34.845Z,22.77
2019-04-30T03:51:05.073Z,22.87
2019-04-30T03:53:35.377Z,24.70
2019-04-30T03:56:05.708Z,23.23
2019-04-30T03:58:35.972Z,22.37
2019-04-30T04:01:15.792Z,22.90
2019-04-30T04:04:23.096Z,22.53
2019-04-30T04:07:04.785Z,21.73
2019-04-30T04:09:40.898Z,22.93
2019-04-30T04:12:23.429Z,24.57
2019-04-30T04:14:53.926Z,24.37
2019-04-30T04:17:24.258Z,23.50
2019-04-30T04:19:54.451Z,22.83
2019-04-30T04:22:25.171Z,25.33
2019-04-30T04:24:55.940Z,25.50
2019-04-30T04:27:26.239Z,26.40
2019-04-30T04:29:56.466Z,27.10
2019-04-30T04:32:26.721Z,27.40
2019-04-30T04:35:00.413Z,27.40
2019-04-30T04:37:30.701Z,27.80
2019-04-30T04:40:01.052Z,26.33
2019-04-30T04:42:33.030Z,27.60
2019-04-30T04:45:03.578Z,26.50
2019-04-30T04:47:33.783Z,25.63
2019-04-30T04:50:04.101Z,27.13
2019-04-30T04:52:34.377Z,27.00
2019-04-30T04:55:04.986Z,26.77
2019-04-30T04:57:35.281Z,26.60
2019-04-30T05:00:07.565Z,27.07
2019-04-30T05:03:03.254Z,28.57
2019-04-30T05:05:33.544Z,31.43
2019-04-30T05:08:03.786Z,29.73
2019-04-30T05:10:34.077Z,31.30
2019-04-30T05:13:04.335Z,30.77
2019-04-30T05:15:34.557Z,29.63
2019-04-30T05:18:04.821Z,32.37
2019-04-30T05:20:35.163Z,34.83
2019-04-30T05:23:05.445Z,32.97
2019-04-30T05:25:35.846Z,36.60
2019-04-30T05:28:06.320Z,30.13
2019-04-30T05:30:36.541Z,37.10
2019-04-30T05:33:08.717Z,31.67
2019-04-30T05:35:39.002Z,35.53
2019-04-30T05:38:09.419Z,34.93
2019-04-30T05:40:42.475Z,34.77
2019-04-30T05:43:11.610Z,40.57
2019-04-30T05:45:41.898Z,33.70
2019-04-30T05:48:12.117Z,37.70
2019-04-30T05:50:42.359Z,32.27
2019-04-30T05:53:12.653Z,35.63
2019-04-30T05:55:43.052Z,36.67
2019-04-30T05:58:13.334Z,34.93
2019-04-30T06:00:43.623Z,36.47
2019-04-30T06:03:25.144Z,36.20
2019-04-30T06:05:45.826Z,35.37
2019-04-30T06:08:19.198Z,38.10
2019-04-30T06:10:59.766Z,34.40
2019-04-30T06:13:40.432Z,37.57
2019-04-30T06:16:13.973Z,37.20
2019-04-30T06:18:44.361Z,37.00
2019-04-30T06:21:14.627Z,40.13
2019-04-30T06:23:44.911Z,36.30
2019-04-30T06:26:15.841Z,37.83
2019-04-30T06:28:46.110Z,37.27
2019-04-30T06:31:16.452Z,33.90
2019-04-30T06:33:48.636Z,36.07
2019-04-30T06:36:19.276Z,34.90
2019-04-30T06:38:49.527Z,35.80
2019-04-30T06:41:19.893Z,35.67
2019-04-30T06:43:50.608Z,36.20
2019-04-30T06:46:20.890Z,40.13
2019-04-30T06:48:51.133Z,35.00
2019-04-30T06:51:21.417Z,39.47
2019-04-30T06:53:51.789Z,35.20
2019-04-30T06:56:22.170Z,34.23
2019-04-30T06:58:52.727Z,39.53
2019-04-30T07:01:26.117Z,35.37
2019-04-30T07:03:58.890Z,36.77
2019-04-30T07:06:32.291Z,33.30
2019-04-30T07:09:11.940Z,37.97
2019-04-30T07:11:49.419Z,34.60
2019-04-30T07:14:19.771Z,36.67
2019-04-30T07:16:50.050Z,36.73
2019-04-30T07:19:31.877Z,39.20
2019-04-30T07:21:52.420Z,35.07
2019-04-30T07:24:22.799Z,35.73
2019-04-30T07:26:54.677Z,34.10
2019-04-30T07:29:25.198Z,35.03
2019-04-30T07:31:55.500Z,37.97
2019-04-30T07:34:25.882Z,36.53
2019-04-30T07:37:10.721Z,43.13
2019-04-30T07:39:31.708Z,38.07
2019-04-30T07:42:00.207Z,34.97
2019-04-30T07:44:36.232Z,38.17
2019-04-30T07:47:02.460Z,32.57
2019-04-30T07:49:46.957Z,36.13
2019-04-30T07:52:05.476Z,34.10
2019-04-30T07:54:36.151Z,35.43
2019-04-30T07:57:06.508Z,36.17
2019-04-30T07:59:36.889Z,33.37
2019-04-30T08:02:12.225Z,31.17
2019-04-30T08:04:56.717Z,36.83
2019-04-30T08:07:27.126Z,35.87
2019-04-30T08:09:58.983Z,36.13
2019-04-30T08:12:34.381Z,33.03
2019-04-30T08:15:01.544Z,33.87
2019-04-30T08:17:31.868Z,33.03
2019-04-30T08:20:02.186Z,35.50
2019-04-30T08:22:32.539Z,35.20
2019-04-30T08:25:02.871Z,31.63
2019-04-30T08:27:33.162Z,31.97
2019-04-30T08:30:03.493Z,33.73
2019-04-30T08:32:33.736Z,33.50
2019-04-30T08:35:04.138Z,37.83
2019-04-30T08:37:34.379Z,34.33
2019-04-30T08:40:05.081Z,41.03
2019-04-30T08:42:37.888Z,35.20
2019-04-30T08:45:09.479Z,34.00
2019-04-30T08:47:39.880Z,34.00
2019-04-30T08:50:10.941Z,34.30
2019-04-30T08:52:41.723Z,33.27
2019-04-30T08:55:16.617Z,38.37
2019-04-30T08:57:44.424Z,34.17
2019-04-30T09:00:15.234Z,38.73
2019-04-30T09:02:45.458Z,35.67
2019-04-30T09:05:21.983Z,37.63
2019-04-30T09:07:52.328Z,36.87
2019-04-30T09:10:22.663Z,34.30
2019-04-30T09:12:53.144Z,37.43
2019-04-30T09:15:23.444Z,35.00
2019-04-30T09:18:03.349Z,33.17
2019-04-30T09:20:25.844Z,36.87
2019-04-30T09:22:56.053Z,39.10
2019-04-30T09:25:28.519Z,37.67
2019-04-30T09:27:58.953Z,35.57
2019-04-30T09:30:29.951Z,35.87
2019-04-30T09:33:00.242Z,36.43
2019-04-30T09:35:32.191Z,39.23
2019-04-30T09:38:02.569Z,38.40
2019-04-30T09:40:32.885Z,38.27
2019-04-30T09:43:03.188Z,35.97
2019-04-30T09:45:33.424Z,36.60
2019-04-30T09:48:03.739Z,40.53
2019-04-30T09:50:34.726Z,38.73
2019-04-30T09:53:05.420Z,41.00
2019-04-30T09:55:35.753Z,34.53
2019-04-30T09:58:16.219Z,35.90
2019-04-30T10:00:39.296Z,33.53
2019-04-30T10:03:10.800Z,32.67
2019-04-30T10:05:41.579Z,31.97
2019-04-30T10:08:12.005Z,35.97
2019-04-30T10:10:48.671Z,35.53
2019-04-30T10:13:19.007Z,34.33
2019-04-30T10:16:09.734Z,35.07
2019-04-30T10:18:40.294Z,39.40
2019-04-30T10:21:10.572Z,34.37
2019-04-30T10:23:40.844Z,32.47
2019-04-30T10:26:11.261Z,35.37
2019-04-30T10:28:44.393Z,36.63
2019-04-30T10:31:14.746Z,31.37
2019-04-30T10:33:45.023Z,31.83
2019-04-30T10:36:15.362Z,31.43
2019-04-30T10:38:45.645Z,30.23
2019-04-30T10:41:16.050Z,31.37
2019-04-30T10:43:46.352Z,32.03
2019-04-30T10:46:16.695Z,28.47
2019-04-30T10:48:46.962Z,30.83
2019-04-30T10:51:18.940Z,27.07
2019-04-30T10:53:50.884Z,30.60
2019-04-30T10:56:21.264Z,31.47
2019-04-30T10:58:51.625Z,31.93
2019-04-30T11:01:22.047Z,31.23
2019-04-30T11:03:52.408Z,30.40
2019-04-30T11:06:22.709Z,35.30
2019-04-30T11:08:53.081Z,30.87
2019-04-30T11:11:23.416Z,36.30
2019-04-30T11:13:53.729Z,31.60
2019-04-30T11:16:23.988Z,29.07
2019-04-30T11:18:54.522Z,31.30
2019-04-30T11:21:25.042Z,33.87
2019-04-30T11:23:55.637Z,37.07
2019-04-30T11:26:26.675Z,29.43
2019-04-30T11:28:57.922Z,32.73
2019-04-30T11:31:47.558Z,29.43
2019-04-30T11:34:17.967Z,29.00
2019-04-30T11:36:48.249Z,25.90
2019-04-30T11:39:21.535Z,26.10
2019-04-30T11:41:51.881Z,24.27
2019-04-30T11:44:31.045Z,28.40
2019-04-30T11:47:37.277Z,25.93
2019-04-30T11:50:11.189Z,22.37
2019-04-30T11:52:41.426Z,23.37
2019-04-30T11:55:12.129Z,22.67
2019-04-30T11:57:42.689Z,25.97
2019-04-30T12:00:18.689Z,27.50
2019-04-30T12:02:52.785Z,26.03
2019-04-30T12:05:21.231Z,29.13
2019-04-30T12:08:09.816Z,25.43
2019-04-30T12:10:59.162Z,21.80
2019-04-30T12:13:30.725Z,21.80
2019-04-30T12:16:01.055Z,19.60
2019-04-30T12:18:31.422Z,19.53
2019-04-30T12:21:01.731Z,20.83
2019-04-30T12:23:32.105Z,22.37
2019-04-30T12:26:02.974Z,26.77
2019-04-30T12:28:33.511Z,24.13
2019-04-30T12:31:05.876Z,25.47
2019-04-30T12:33:36.743Z,23.83
2019-04-30T12:36:08.886Z,22.80
2019-04-30T12:38:39.137Z,24.80
2019-04-30T12:41:09.567Z,23.50
2019-04-30T12:43:39.943Z,28.63
2019-04-30T12:46:10.327Z,19.87
2019-04-30T12:48:52.393Z,19.17
2019-04-30T12:51:30.596Z,19.70
2019-04-30T12:54:04.481Z,17.63
2019-04-30T12:56:52.543Z,16.87
2019-04-30T12:59:22.924Z,20.33
2019-04-30T13:01:53.229Z,22.13
2019-04-30T13:04:23.574Z,22.47
2019-04-30T13:06:54.270Z,17.60
2019-04-30T13:09:25.313Z,15.10
2019-04-30T13:11:56.418Z,14.87
2019-04-30T13:14:29.496Z,15.90
2019-04-30T13:16:59.056Z,16.97
2019-04-30T13:19:29.491Z,17.10
2019-04-30T13:21:59.756Z,18.63
2019-04-30T13:24:31.542Z,18.00
2019-04-30T13:27:01.998Z,20.53
2019-04-30T13:29:38.047Z,14.27
2019-04-30T13:32:08.658Z,18.73
2019-04-30T13:34:46.815Z,15.53
2019-04-30T13:37:19.095Z,15.20
2019-04-30T13:39:56.704Z,15.47
2019-04-30T13:42:31.602Z,16.07
2019-04-30T13:45:01.911Z,18.97
2019-04-30T13:47:32.222Z,15.33
2019-04-30T13:50:02.557Z,16.73
2019-04-30T13:52:32.911Z,12.90
2019-04-30T13:55:03.348Z,17.10
2019-04-30T13:57:34.417Z,14.97
2019-04-30T14:00:06.337Z,19.57
2019-04-30T14:02:40.468Z,13.87
2019-04-30T14:05:17.701Z,16.10
2019-04-30T14:08:10.074Z,14.33
2019-04-30T14:10:42.633Z,17.10
2019-04-30T14:13:13.047Z,17.40
2019-04-30T14:15:44.422Z,17.67
2019-04-30T14:18:27.662Z,15.60
2019-04-30T14:20:46.686Z,15.00
2019-04-30T14:23:18.578Z,14.83
2019-04-30T14:25:56.341Z,15.30
2019-04-30T14:28:21.166Z,15.30
2019-04-30T14:30:51.473Z,14.93
2019-04-30T14:33:26.318Z,14.60
2019-04-30T14:35:53.811Z,16.60
2019-04-30T14:38:24.142Z,15.27
2019-04-30T14:40:54.732Z,15.10
2019-04-30T14:43:42.775Z,14.83
2019-04-30T14:46:31.660Z,13.20
2019-04-30T14:49:31.287Z,14.47
2019-04-30T14:52:02.414Z,15.93
2019-04-30T14:54:39.850Z,14.63
2019-04-30T14:57:29.132Z,14.23
2019-04-30T15:00:22.322Z,14.17
2019-04-30T15:02:58.600Z,13.77
2019-04-30T15:05:39.147Z,17.50
2019-04-30T15:08:03.269Z,14.00
2019-04-30T15:10:33.621Z,13.40
2019-04-30T15:13:03.996Z,16.13
2019-04-30T15:15:34.244Z,13.33
2019-04-30T15:18:04.544Z,13.17
2019-04-30T15:20:34.835Z,14.30
2019-04-30T15:23:18.871Z,17.30
2019-04-30T15:25:48.575Z,14.13
2019-04-30T15:28:18.913Z,18.43
2019-04-30T15:30:49.197Z,12.93
2019-04-30T15:33:26.419Z,12.53
2019-04-30T15:35:56.761Z,16.10
2019-04-30T15:38:46.043Z,15.80
2019-04-30T15:41:16.575Z,13.07
2019-04-30T15:43:46.926Z,14.17
2019-04-30T15:46:17.329Z,16.47
2019-04-30T15:48:47.654Z,16.10
2019-04-30T15:51:18.015Z,13.80
2019-04-30T15:53:48.268Z,13.87
2019-04-30T15:56:19.293Z,13.43
2019-04-30T15:59:11.099Z,16.03
2019-04-30T16:01:42.401Z,12.03
2019-04-30T16:04:14.476Z,13.00
2019-04-30T16:06:45.635Z,13.90
2019-04-30T16:09:22.601Z,14.00
2019-04-30T16:12:00.613Z,14.90
2019-04-30T16:14:33.892Z,14.60
2019-04-30T16:17:29.363Z,13.27
2019-04-30T16:19:59.665Z,19.17
2019-04-30T16:22:30.019Z,16.23
2019-04-30T16:25:00.689Z,13.53
2019-04-30T16:27:31.148Z,14.73
2019-04-30T16:30:01.446Z,17.07
2019-04-30T16:32:31.776Z,13.37
2019-04-30T16:35:02.055Z,12.97
2019-04-30T16:37:32.380Z,13.73
2019-04-30T16:40:03.584Z,14.73
2019-04-30T16:42:35.186Z,14.87
2019-04-30T16:45:09.162Z,14.43
2019-04-30T16:47:39.414Z,14.67
2019-04-30T16:50:10.896Z,12.97
2019-04-30T16:52:41.383Z,12.80
2019-04-30T16:55:11.656Z,14.43
2019-04-30T16:57:42.084Z,15.00
2019-04-30T17:00:16.220Z,16.40
2019-04-30T17:02:49.926Z,12.90
2019-04-30T17:05:29.516Z,12.43
2019-04-30T17:08:04.633Z,13.23
2019-04-30T17:10:50.499Z,16.87
2019-04-30T17:13:43.104Z,14.83
2019-04-30T17:16:19.576Z,14.03
2019-04-30T17:18:51.529Z,15.03
2019-04-30T17:21:21.828Z,12.00
2019-04-30T17:23:52.036Z,13.17
2019-04-30T17:26:22.342Z,14.90
2019-04-30T17:28:52.558Z,15.43
2019-04-30T17:31:23.749Z,14.23
2019-04-30T17:33:54.122Z,13.77
2019-04-30T17:36:24.443Z,16.57
2019-04-30T17:38:54.750Z,14.27
2019-04-30T17:41:25.056Z,15.10
2019-04-30T17:43:55.328Z,15.47
2019-04-30T17:46:25.648Z,14.43
2019-04-30T17:48:55.937Z,16.50
2019-04-30T17:51:26.283Z,17.20
2019-04-30T17:54:15.113Z,12.53
2019-04-30T17:56:46.337Z,11.93
2019-04-30T17:59:16.649Z,13.93
2019-04-30T18:01:54.606Z,12.93
2019-04-30T18:04:24.961Z,15.20
2019-04-30T18:06:55.362Z,14.80
2019-04-30T18:09:26.037Z,14.67
2019-04-30T18:11:56.421Z,11.87
2019-04-30T18:14:28.438Z,14.17
2019-04-30T18:16:59.503Z,13.53
2019-04-30T18:19:41.687Z,12.20
2019-04-30T18:22:31.027Z,13.90
2019-04-30T18:25:08.570Z,11.10
2019-04-30T18:27:46.316Z,13.67
2019-04-30T18:30:19.019Z,12.53
2019-04-30T18:32:50.828Z,13.23
2019-04-30T18:35:21.047Z,15.43
2019-04-30T18:37:51.345Z,11.83
2019-04-30T18:40:21.582Z,11.67
2019-04-30T18:42:51.797Z,15.37
2019-04-30T18:45:22.121Z,16.37
2019-04-30T18:47:52.465Z,14.20
2019-04-30T18:50:22.770Z,15.13
2019-04-30T18:52:54.808Z,14.10
2019-04-30T18:55:25.123Z,17.10
2019-04-30T18:57:56.914Z,16.00
2019-04-30T19:00:40.007Z,14.13
2019-04-30T19:03:10.624Z,19.00
2019-04-30T19:05:42.648Z,15.87
2019-04-30T19:08:19.539Z,20.30
2019-04-30T19:11:00.528Z,14.37
2019-04-30T19:13:59.319Z,16.97
2019-04-30T19:16:47.262Z,13.73
2019-04-30T19:19:23.426Z,13.37
2019-04-30T19:21:53.754Z,13.93
2019-04-30T19:24:24.074Z,17.37
2019-04-30T19:26:54.390Z,15.07
2019-04-30T19:29:24.702Z,14.10
2019-04-30T19:31:55.079Z,13.47
2019-04-30T19:34:25.315Z,16.83
2019-04-30T19:36:55.616Z,14.80
2019-04-30T19:39:25.978Z,15.53
2019-04-30T19:41:58.395Z,15.93
2019-04-30T19:44:29.335Z,14.13
2019-04-30T19:46:59.790Z,17.30
2019-04-30T19:49:30.028Z,17.97
2019-04-30T19:52:08.592Z,17.33
2019-04-30T19:54:32.833Z,16.73
2019-04-30T19:57:03.401Z,16.90
2019-04-30T19:59:33.799Z,22.47
2019-04-30T20:02:04.108Z,20.43
2019-04-30T20:04:36.441Z,21.90
2019-04-30T20:07:08.717Z,18.30
2019-04-30T20:09:38.612Z,16.90
2019-04-30T20:12:10.565Z,18.27
2019-04-30T20:14:41.014Z,17.47
2019-04-30T20:17:13.115Z,17.77
2019-04-30T20:19:43.226Z,18.63
2019-04-30T20:22:13.790Z,20.27
2019-04-30T20:24:44.181Z,20.10
2019-04-30T20:27:14.480Z,17.70
2019-04-30T20:29:44.708Z,15.63
2019-04-30T20:32:15.027Z,18.03
2019-04-30T20:34:45.414Z,17.03
2019-04-30T20:37:15.744Z,16.37
2019-04-30T20:39:53.609Z,15.60
2019-04-30T20:42:23.895Z,20.03
2019-04-30T20:44:54.114Z,21.37
2019-04-30T20:47:24.496Z,19.57
2019-04-30T20:49:54.788Z,18.50
2019-04-30T20:52:25.148Z,21.50
2019-04-30T20:54:55.366Z,20.73
2019-04-30T20:57:25.607Z,21.00
2019-04-30T20:59:55.931Z,17.30
2019-04-30T21:02:26.272Z,18.87
2019-04-30T21:04:56.552Z,19.00
2019-04-30T21:07:26.831Z,20.13
2019-04-30T21:09:58.293Z,19.20
2019-04-30T21:12:29.158Z,16.97
2019-04-30T21:14:59.655Z,19.03
2019-04-30T21:17:30.097Z,20.93
2019-04-30T21:20:01.036Z,21.17
2019-04-30T21:22:31.435Z,21.73
2019-04-30T21:25:01.673Z,20.53
2019-04-30T21:27:31.947Z,21.97
2019-04-30T21:30:02.236Z,20.30
2019-04-30T21:32:54.635Z,20.07
2019-04-30T21:35:40.156Z,24.17
2019-04-30T21:38:10.497Z,18.23
2019-04-30T21:40:40.717Z,20.13
2019-04-30T21:43:11.002Z,20.37
2019-04-30T21:45:41.390Z,21.57
2019-04-30T21:48:11.827Z,23.33
2019-04-30T21:50:42.028Z,19.90
2019-04-30T21:53:12.268Z,20.03
2019-04-30T21:55:42.560Z,22.83
2019-04-30T21:58:12.881Z,21.03
2019-04-30T22:01:07.259Z,19.93
2019-04-30T22:03:39.426Z,24.70
2019-04-30T22:06:10.679Z,25.37
2019-04-30T22:08:40.960Z,18.23
2019-04-30T22:11:11.206Z,19.70
2019-04-30T22:13:43.161Z,22.13
2019-04-30T22:16:13.561Z,21.53
2019-04-30T22:18:43.757Z,23.33
2019-04-30T22:21:14.059Z,19.07
2019-04-30T22:23:44.374Z,25.23
2019-04-30T22:26:14.655Z,23.07
2019-04-30T22:28:45.227Z,30.97
2019-04-30T22:31:15.518Z,27.47
2019-04-30T22:33:45.778Z,27.27
2019-04-30T22:36:38.750Z,23.93
2019-04-30T22:39:19.828Z,22.13
2019-04-30T22:41:49.700Z,23.13
2019-04-30T22:44:19.994Z,20.93
2019-04-30T22:46:50.227Z,20.17
2019-04-30T22:49:20.538Z,26.07
2019-04-30T22:51:50.833Z,22.20
2019-04-30T22:54:21.116Z,20.37
2019-04-30T22:56:51.441Z,21.93
2019-04-30T22:59:21.758Z,21.20
2019-04-30T23:02:01.285Z,22.37
2019-04-30T23:04:38.982Z,21.30
2019-04-30T23:07:09.265Z,22.70
2019-04-30T23:09:39.556Z,23.50
2019-04-30T23:12:10.054Z,24.77
2019-04-30T23:14:40.332Z,24.17
2019-04-30T23:17:10.632Z,21.23
2019-04-30T23:19:40.861Z,23.27
2019-04-30T23:22:11.152Z,22.33
2019-04-30T23:24:41.451Z,21.00
2019-04-30T23:27:11.755Z,23.37
2019-04-30T23:29:42.055Z,22.30
2019-04-30T23:32:13.673Z,22.43
2019-04-30T23:34:43.983Z,26.13
2019-04-30T23:37:14.277Z,23.37
2019-04-30T23:39:44.652Z,22.90
2019-04-30T23:42:14.971Z,22.67
2019-04-30T23:44:45.269Z,20.90
2019-04-30T23:47:15.556Z,21.40
2019-04-30T23:49:45.779Z,24.40
2019-04-30T23:52:16.109Z,23.53
2019-04-30T23:54:46.381Z,24.43
2019-04-30T23:57:16.560Z,22.77
2019-04-30T23:59:46.862Z,22.90
